Time;durP1;ratioP1;P1;durP2;ratioP2;P2;SDS_P1;SDS_P2;PMS_P1;PMS_P2;Temp;Humidity;BMP_temperature;BMP_pressure;BME280_temperature;BME280_humidity;BME280_pressure;Samples;Min_cycle;Max_cycle;Signal;HPM_P1;HPM_P2
2023/06/19 00:00:30;;;;;;;8.07;5.43;;;21.90;99.90;;;;;;4200342;28;20491;-84
2023/06/19 00:02:31;;;;;;;6.82;5.43;;;21.90;99.90;;;;;;4200032;28;20051;-84
2023/06/19 00:04:32;;;;;;;6.68;5.20;;;21.80;99.90;;;;;;4199536;28;20072;-84
2023/06/19 00:06:32;;;;;;;7.25;5.50;;;21.80;99.90;;;;;;4200226;28;20059;-85
2023/06/19 00:08:34;;;;;;;7.85;5.20;;;21.80;99.90;;;;;;4199929;28;20532;-84
2023/06/19 00:10:34;;;;;;;9.93;5.78;;;21.90;99.90;;;;;;4200342;28;20041;-84
2023/06/19 00:12:36;;;;;;;7.68;5.05;;;21.80;99.90;;;;;;4199938;28;20052;-84
2023/06/19 00:14:37;;;;;;;8.07;5.03;;;21.80;99.90;;;;;;4199980;28;20051;-84
2023/06/19 00:16:40;;;;;;;9.02;5.43;;;21.80;99.90;;;;;;4199668;28;20048;-85
2023/06/19 00:18:41;;;;;;;6.75;4.88;;;21.70;99.90;;;;;;4200413;28;20119;-83
2023/06/19 00:20:45;;;;;;;9.43;4.78;;;21.70;99.90;;;;;;4182103;28;20053;-83
2023/06/19 00:22:51;;;;;;;5.70;4.05;;;21.70;99.90;;;;;;4198594;28;20057;-83
2023/06/19 00:24:52;;;;;;;5.72;4.18;;;21.70;99.90;;;;;;4200319;28;20123;-84
2023/06/19 00:26:52;;;;;;;6.75;4.80;;;21.70;99.90;;;;;;4199262;28;20051;-83
2023/06/19 00:28:53;;;;;;;7.25;4.78;;;21.70;99.90;;;;;;4182361;28;20051;-84
2023/06/19 00:30:54;;;;;;;6.07;4.35;;;21.70;99.90;;;;;;4182447;28;20045;-84
2023/06/19 00:32:55;;;;;;;7.32;4.38;;;21.70;99.90;;;;;;4200502;28;20097;-84
2023/06/19 00:34:56;;;;;;;6.00;4.70;;;21.70;99.90;;;;;;4182439;28;20060;-84
2023/06/19 00:36:58;;;;;;;6.57;4.40;;;21.70;99.90;;;;;;4198903;28;20067;-84
2023/06/19 00:38:58;;;;;;;6.00;4.28;;;21.70;99.90;;;;;;4166586;28;20049;-84
2023/06/19 00:40:59;;;;;;;7.03;4.35;;;21.70;99.90;;;;;;4200208;28;20076;-85
2023/06/19 00:43:00;;;;;;;6.57;4.30;;;21.70;99.90;;;;;;4200539;28;20047;-84
2023/06/19 00:45:01;;;;;;;9.50;4.43;;;21.70;99.90;;;;;;4181478;28;20112;-84
2023/06/19 00:47:03;;;;;;;7.13;4.10;;;21.70;99.90;;;;;;4198902;28;20130;-84
2023/06/19 00:49:04;;;;;;;12.85;4.50;;;21.70;99.90;;;;;;4200142;28;20064;-84
2023/06/19 00:51:05;;;;;;;10.00;4.35;;;21.70;99.90;;;;;;4181787;28;20077;-84
2023/06/19 00:53:08;;;;;;;7.25;5.10;;;21.60;99.90;;;;;;4200146;28;20102;-84
2023/06/19 00:55:10;;;;;;;8.60;4.60;;;21.60;99.90;;;;;;4198996;28;20439;-84
2023/06/19 00:57:10;;;;;;;12.27;4.47;;;21.60;99.90;;;;;;4182538;28;20073;-84
2023/06/19 00:59:16;;;;;;;8.85;3.80;;;21.60;99.90;;;;;;4199273;28;20454;-84
2023/06/19 01:01:17;;;;;;;7.43;4.00;;;21.60;99.90;;;;;;4181804;28;20859;-84
2023/06/19 01:03:18;;;;;;;8.57;4.72;;;21.60;99.90;;;;;;4164411;28;20050;-83
2023/06/19 01:05:19;;;;;;;8.70;4.68;;;21.60;99.90;;;;;;4198680;28;20413;-85
2023/06/19 01:07:34;;;;;;;8.45;4.95;;;21.60;99.90;;;;;;4198813;28;20052;-85
2023/06/19 01:09:53;;;;;;;7.53;4.30;;;21.60;99.90;;;;;;4198653;28;20461;-85
2023/06/19 01:11:58;;;;;;;6.45;4.60;;;21.60;99.90;;;;;;4198247;28;20127;-84
2023/06/19 01:14:05;;;;;;;5.25;4.13;;;21.60;99.90;;;;;;4181597;28;20135;-84
2023/06/19 01:16:07;;;;;;;5.20;3.75;;;21.50;99.90;;;;;;4198651;28;20080;-84
2023/06/19 01:18:11;;;;;;;8.85;4.22;;;21.50;99.90;;;;;;4180212;28;20053;-85
2023/06/19 01:20:12;;;;;;;6.18;4.38;;;21.50;99.90;;;;;;4198776;28;20123;-84
2023/06/19 01:22:28;;;;;;;5.78;4.43;;;21.50;99.90;;;;;;4180569;28;20108;-85
2023/06/19 01:24:29;;;;;;;6.68;4.53;;;21.50;99.90;;;;;;4198772;28;20046;-85
2023/06/19 01:26:30;;;;;;;6.18;4.53;;;21.50;99.90;;;;;;4198603;28;20040;-84
2023/06/19 01:28:31;;;;;;;4.82;3.67;;;21.50;99.90;;;;;;4198473;28;20044;-84
2023/06/19 01:30:34;;;;;;;6.32;4.43;;;21.50;99.90;;;;;;4198402;28;20099;-84
2023/06/19 01:33:06;;;;;;;7.20;4.47;;;21.50;99.90;;;;;;4197931;28;20114;-84
2023/06/19 01:35:09;;;;;;;5.95;4.30;;;21.50;99.90;;;;;;4157143;28;20049;-84
2023/06/19 01:37:11;;;;;;;8.02;3.90;;;21.50;99.90;;;;;;4180591;28;20048;-83
2023/06/19 01:39:12;;;;;;;6.20;4.78;;;21.50;99.90;;;;;;4197453;28;20544;-84
2023/06/19 01:41:15;;;;;;;7.70;4.95;;;21.50;99.90;;;;;;4197385;28;20135;-83
2023/06/19 01:43:16;;;;;;;6.05;4.30;;;21.50;99.90;;;;;;4197963;28;20082;-84
2023/06/19 01:45:17;;;;;;;5.65;4.13;;;21.50;99.90;;;;;;4198402;28;20515;-83
2023/06/19 01:47:19;;;;;;;5.45;4.03;;;21.50;99.90;;;;;;4198542;28;20036;-83
2023/06/19 01:49:20;;;;;;;8.25;4.80;;;21.50;99.90;;;;;;4180132;28;20052;-83
2023/06/19 01:51:21;;;;;;;8.10;4.57;;;21.50;99.90;;;;;;4199210;28;20041;-83
2023/06/19 01:53:22;;;;;;;7.15;4.20;;;21.50;99.90;;;;;;4197732;28;20045;-84
2023/06/19 01:55:23;;;;;;;6.70;4.13;;;21.50;99.90;;;;;;4199189;28;20040;-83
2023/06/19 01:57:24;;;;;;;5.45;4.22;;;21.50;99.90;;;;;;4198322;28;20174;-84
2023/06/19 01:59:24;;;;;;;8.00;4.70;;;21.50;99.90;;;;;;4199857;28;20048;-84
2023/06/19 02:01:25;;;;;;;7.47;4.45;;;21.50;99.90;;;;;;4198684;28;20044;-84
2023/06/19 02:03:26;;;;;;;5.60;4.38;;;21.50;99.90;;;;;;4198625;28;20048;-84
2023/06/19 02:05:28;;;;;;;7.78;4.43;;;21.40;99.90;;;;;;4197862;28;20045;-84
2023/06/19 02:07:28;;;;;;;6.18;4.40;;;21.40;99.90;;;;;;4197827;28;20502;-84
2023/06/19 02:09:29;;;;;;;8.88;4.22;;;21.40;99.90;;;;;;4198512;28;20127;-83
2023/06/19 02:11:30;;;;;;;7.22;4.47;;;21.40;99.90;;;;;;4198044;28;20500;-83
2023/06/19 02:13:30;;;;;;;5.63;4.13;;;21.40;99.90;;;;;;4181651;28;20049;-84
2023/06/19 02:15:31;;;;;;;4.75;4.10;;;21.40;99.90;;;;;;4198755;28;20059;-85
2023/06/19 02:17:33;;;;;;;8.35;4.30;;;21.40;99.90;;;;;;4198761;28;20048;-84
2023/06/19 02:19:33;;;;;;;10.55;4.57;;;21.40;99.90;;;;;;4198501;28;20067;-85
2023/06/19 02:21:34;;;;;;;7.53;5.28;;;21.40;99.90;;;;;;4198301;28;20044;-85
2023/06/19 02:23:35;;;;;;;7.22;4.18;;;21.40;99.90;;;;;;4198576;28;20052;-85
2023/06/19 02:25:37;;;;;;;7.72;4.47;;;21.30;99.90;;;;;;4197930;28;20095;-84
2023/06/19 02:27:37;;;;;;;6.80;4.15;;;21.30;99.90;;;;;;4198499;28;20037;-85
2023/06/19 02:29:38;;;;;;;10.60;4.82;;;21.30;99.90;;;;;;4180435;28;20574;-85
2023/06/19 02:31:39;;;;;;;7.03;5.28;;;21.40;99.90;;;;;;4198552;28;20072;-85
2023/06/19 02:33:40;;;;;;;7.55;4.00;;;21.30;99.90;;;;;;4198213;28;20037;-85
2023/06/19 02:35:41;;;;;;;7.70;4.35;;;21.30;99.90;;;;;;4196231;28;20044;-85
2023/06/19 02:37:42;;;;;;;6.65;4.70;;;21.30;99.90;;;;;;4198676;28;20078;-85
2023/06/19 02:39:43;;;;;;;6.43;4.30;;;21.30;99.90;;;;;;4197330;28;20390;-85
2023/06/19 02:41:45;;;;;;;7.00;4.25;;;21.40;99.90;;;;;;4197439;28;20096;-85
2023/06/19 02:43:47;;;;;;;6.30;4.50;;;21.30;99.90;;;;;;4179477;28;20049;-84
2023/06/19 02:45:47;;;;;;;7.72;4.57;;;21.40;99.90;;;;;;4198093;28;20058;-85
2023/06/19 02:47:50;;;;;;;5.78;4.13;;;21.40;99.90;;;;;;4197943;28;20155;-85
2023/06/19 02:49:50;;;;;;;7.13;4.75;;;21.30;99.90;;;;;;4197236;28;20044;-85
2023/06/19 02:51:51;;;;;;;7.50;4.60;;;21.40;99.90;;;;;;4197744;28;20556;-85
2023/06/19 02:53:52;;;;;;;6.95;4.28;;;21.40;99.90;;;;;;4197674;28;20484;-84
2023/06/19 02:55:52;;;;;;;7.88;4.90;;;21.40;99.80;;;;;;4163962;28;20128;-84
2023/06/19 02:57:53;;;;;;;7.05;4.40;;;21.40;99.70;;;;;;4179912;28;20060;-85
2023/06/19 02:59:54;;;;;;;6.55;4.40;;;21.40;99.50;;;;;;4180237;28;20045;-84
2023/06/19 03:01:55;;;;;;;6.32;4.63;;;21.40;99.20;;;;;;4183962;28;20049;-90
2023/06/19 03:03:56;;;;;;;5.85;4.32;;;21.40;99.00;;;;;;4203127;28;20040;-90
2023/06/19 03:06:00;;;;;;;8.18;4.15;;;21.40;98.70;;;;;;4202800;28;20106;-90
2023/06/19 03:08:01;;;;;;;6.70;4.28;;;21.40;98.50;;;;;;4185552;28;20150;-90
2023/06/19 03:10:03;;;;;;;6.38;4.18;;;21.50;98.20;;;;;;4202424;28;20086;-90
2023/06/19 03:12:04;;;;;;;8.15;4.93;;;21.50;98.00;;;;;;4200009;28;20045;-89
2023/06/19 03:14:07;;;;;;;8.35;4.70;;;21.60;97.90;;;;;;4201869;28;20081;-90
2023/06/19 03:16:08;;;;;;;8.40;4.30;;;21.60;97.60;;;;;;4201320;28;20044;-88
2023/06/19 03:18:10;;;;;;;8.52;4.68;;;21.60;97.50;;;;;;4201934;28;20143;-89
2023/06/19 03:20:11;;;;;;;16.35;5.30;;;21.60;97.40;;;;;;4200622;28;20040;-89
2023/06/19 03:22:12;;;;;;;7.47;4.32;;;21.60;97.30;;;;;;4201274;28;20048;-89
2023/06/19 03:24:13;;;;;;;7.80;5.57;;;21.60;97.20;;;;;;4201912;28;20062;-89
2023/06/19 03:26:15;;;;;;;6.47;4.38;;;21.60;97.20;;;;;;4200976;28;20045;-89
2023/06/19 03:28:15;;;;;;;9.20;4.88;;;21.60;97.10;;;;;;4201417;28;20044;-88
2023/06/19 03:30:18;;;;;;;6.82;4.82;;;21.60;97.00;;;;;;4200440;28;20119;-88
2023/06/19 03:32:19;;;;;;;7.03;4.63;;;21.60;97.00;;;;;;4201383;28;20048;-89
2023/06/19 03:34:22;;;;;;;7.32;4.43;;;21.60;97.00;;;;;;4200435;28;20048;-89
2023/06/19 03:36:23;;;;;;;6.00;4.60;;;21.60;96.90;;;;;;4200785;28;20076;-88
2023/06/19 03:38:24;;;;;;;8.20;5.00;;;21.60;97.00;;;;;;4200887;28;20041;-90
2023/06/19 03:40:24;;;;;;;7.90;5.00;;;21.50;97.00;;;;;;4200702;28;20544;-89
2023/06/19 03:42:25;;;;;;;7.28;4.78;;;21.50;97.10;;;;;;4201710;28;20040;-90
2023/06/19 03:44:26;;;;;;;8.15;5.15;;;21.50;97.20;;;;;;4201092;28;20090;-90
2023/06/19 03:46:26;;;;;;;8.98;5.28;;;21.50;97.30;;;;;;4183701;28;20056;-89
2023/06/19 03:48:29;;;;;;;7.82;4.50;;;21.50;97.40;;;;;;4201115;28;20377;-89
2023/06/19 03:50:31;;;;;;;7.00;4.78;;;21.50;97.50;;;;;;4202741;28;20132;-89
2023/06/19 03:52:32;;;;;;;8.23;4.82;;;21.40;97.60;;;;;;4201760;28;20041;-89
2023/06/19 03:54:32;;;;;;;7.72;4.78;;;21.40;97.60;;;;;;4201542;28;20082;-90
2023/06/19 03:56:33;;;;;;;9.10;4.75;;;21.40;97.70;;;;;;4201584;28;20370;-90
2023/06/19 03:58:34;;;;;;;6.28;4.75;;;21.40;97.80;;;;;;4201951;28;20481;-90
2023/06/19 04:00:35;;;;;;;7.63;5.00;;;21.40;97.90;;;;;;4201118;28;20040;-89
2023/06/19 04:02:36;;;;;;;7.13;4.57;;;21.40;97.90;;;;;;4201140;28;20524;-90
2023/06/19 04:04:37;;;;;;;9.43;4.90;;;21.40;97.90;;;;;;4201858;28;20037;-90
2023/06/19 04:06:38;;;;;;;7.82;4.75;;;21.40;98.00;;;;;;4200296;28;20041;-90
2023/06/19 04:08:39;;;;;;;8.65;5.43;;;21.40;98.00;;;;;;4201004;28;20423;-90
2023/06/19 04:10:39;;;;;;;7.97;4.68;;;21.40;98.10;;;;;;4201060;28;20044;-89
2023/06/19 04:12:40;;;;;;;9.68;4.18;;;21.40;98.10;;;;;;4200055;28;20106;-89
2023/06/19 04:14:41;;;;;;;8.88;4.68;;;21.40;98.20;;;;;;4201480;28;20037;-89
2023/06/19 04:16:42;;;;;;;7.50;4.40;;;21.40;98.30;;;;;;4200097;28;20079;-89
2023/06/19 04:18:43;;;;;;;6.38;4.18;;;21.50;98.40;;;;;;4201331;28;20415;-89
2023/06/19 04:20:44;;;;;;;6.38;4.32;;;21.50;98.50;;;;;;4201195;28;20135;-89
2023/06/19 04:22:45;;;;;;;11.40;5.05;;;21.50;98.60;;;;;;4200966;28;20056;-89
2023/06/19 04:24:46;;;;;;;5.45;3.80;;;21.60;98.70;;;;;;4200580;28;20049;-88
2023/06/19 04:26:47;;;;;;;6.18;3.95;;;21.60;98.70;;;;;;4182568;28;20051;-89
2023/06/19 04:28:48;;;;;;;9.85;4.35;;;21.60;98.90;;;;;;4182907;28;20106;-89
2023/06/19 04:30:49;;;;;;;8.25;4.20;;;21.60;99.00;;;;;;4182626;28;20033;-88
2023/06/19 04:32:52;;;;;;;7.90;4.90;;;21.60;99.20;;;;;;4184274;28;20550;-87
2023/06/19 04:34:53;;;;;;;8.48;4.85;;;21.60;99.20;;;;;;4201164;28;20052;-89
2023/06/19 04:36:58;;;;;;;6.50;4.47;;;21.60;99.50;;;;;;4202763;28;20092;-89
2023/06/19 04:39:00;;;;;;;6.30;4.05;;;21.60;99.60;;;;;;4201767;28;20471;-89
2023/06/19 04:41:01;;;;;;;7.50;4.25;;;21.60;99.80;;;;;;4201310;28;20541;-89
2023/06/19 04:43:02;;;;;;;7.30;4.50;;;21.60;99.80;;;;;;4201468;28;20059;-89
2023/06/19 04:45:04;;;;;;;7.93;4.00;;;21.60;99.90;;;;;;4200701;28;20048;-90
2023/06/19 04:47:05;;;;;;;7.03;4.00;;;21.50;99.90;;;;;;4199407;28;20485;-90
2023/06/19 04:49:06;;;;;;;5.53;4.10;;;21.50;99.90;;;;;;4199582;28;20048;-90
2023/06/19 04:51:07;;;;;;;6.43;3.65;;;21.60;99.90;;;;;;4199682;28;20111;-90
2023/06/19 04:53:08;;;;;;;8.57;3.78;;;21.50;99.90;;;;;;4199607;28;20048;-88
2023/06/19 04:55:16;;;;;;;5.50;3.45;;;21.50;99.90;;;;;;4199919;28;20055;-90
2023/06/19 04:57:18;;;;;;;5.60;3.13;;;21.50;99.90;;;;;;4200873;28;20045;-89
2023/06/19 04:59:19;;;;;;;7.38;3.72;;;21.50;99.90;;;;;;4199354;28;20072;-90
2023/06/19 05:01:25;;;;;;;5.40;3.13;;;21.50;99.90;;;;;;4201175;28;20052;-90
2023/06/19 05:03:26;;;;;;;4.90;2.92;;;21.50;99.90;;;;;;4199603;28;20166;-90
2023/06/19 05:05:28;;;;;;;5.45;2.97;;;21.50;99.90;;;;;;4199514;28;20052;-89
2023/06/19 05:07:32;;;;;;;5.65;3.25;;;21.50;99.90;;;;;;4200943;28;20093;-90
2023/06/19 05:09:33;;;;;;;5.80;3.30;;;21.60;99.90;;;;;;4199572;28;20764;-89
2023/06/19 05:11:35;;;;;;;5.07;2.83;;;21.40;99.90;;;;;;4200312;28;20055;-90
2023/06/19 05:13:35;;;;;;;4.20;2.97;;;21.40;99.90;;;;;;4199114;28;20041;-90
2023/06/19 05:15:36;;;;;;;4.75;2.80;;;21.40;99.90;;;;;;4200183;28;20135;-89
2023/06/19 05:17:46;;;;;;;10.25;3.00;;;21.40;99.90;;;;;;4199257;28;20143;-89
2023/06/19 05:19:47;;;;;;;3.80;2.42;;;21.40;99.90;;;;;;4200518;28;20119;-89
2023/06/19 05:21:47;;;;;;;5.38;2.70;;;21.40;99.90;;;;;;4200829;28;20063;-91
2023/06/19 05:23:50;;;;;;;4.30;2.85;;;21.30;99.90;;;;;;4182094;28;20053;-90
2023/06/19 05:25:51;;;;;;;5.30;2.72;;;21.30;99.90;;;;;;4200611;28;20481;-90
2023/06/19 05:27:52;;;;;;;5.47;2.88;;;21.30;99.90;;;;;;4199609;28;20047;-89
2023/06/19 05:29:52;;;;;;;6.63;2.85;;;21.30;99.90;;;;;;4200420;28;20453;-89
2023/06/19 05:31:55;;;;;;;6.25;3.42;;;21.30;99.90;;;;;;4199841;28;20052;-89
2023/06/19 05:33:56;;;;;;;6.82;2.95;;;21.30;99.90;;;;;;4200085;28;20064;-89
2023/06/19 05:35:57;;;;;;;4.45;2.67;;;21.30;99.90;;;;;;4211068;28;20094;-89
2023/06/19 05:37:57;;;;;;;5.15;2.78;;;21.40;99.90;;;;;;4199763;28;20400;-89
2023/06/19 05:39:59;;;;;;;3.90;2.97;;;21.40;99.90;;;;;;4199759;28;20044;-89
2023/06/19 05:42:00;;;;;;;3.78;2.72;;;21.40;99.90;;;;;;4199604;28;20041;-89
2023/06/19 05:44:01;;;;;;;4.18;3.03;;;21.40;99.90;;;;;;4182904;28;20063;-89
2023/06/19 05:46:03;;;;;;;7.40;2.85;;;21.40;99.90;;;;;;4199792;28;20063;-89
2023/06/19 05:48:05;;;;;;;8.20;3.10;;;21.50;99.90;;;;;;4199865;28;20115;-89
2023/06/19 05:50:06;;;;;;;5.40;3.47;;;21.50;99.90;;;;;;4200118;28;20041;-88
2023/06/19 05:52:07;;;;;;;6.47;3.25;;;21.60;99.90;;;;;;4182263;28;20134;-88
2023/06/19 05:54:09;;;;;;;4.18;2.90;;;21.60;99.90;;;;;;4201165;28;20132;-86
2023/06/19 05:56:10;;;;;;;6.47;3.63;;;21.60;99.90;;;;;;4198632;28;20045;-85
2023/06/19 05:58:11;;;;;;;6.18;3.30;;;21.60;99.90;;;;;;4200179;28;20051;-85
2023/06/19 06:00:14;;;;;;;4.60;3.13;;;21.70;99.90;;;;;;4199414;28;20499;-86
2023/06/19 06:02:15;;;;;;;6.97;3.13;;;21.70;99.90;;;;;;4199165;28;20051;-85
2023/06/19 06:04:16;;;;;;;5.13;3.28;;;21.70;99.90;;;;;;4199598;28;20068;-85
2023/06/19 06:06:16;;;;;;;8.48;3.35;;;21.80;99.90;;;;;;4198275;28;20071;-86
2023/06/19 06:08:17;;;;;;;6.53;3.75;;;21.80;99.90;;;;;;4209065;28;20040;-85
2023/06/19 06:10:23;;;;;;;7.97;4.03;;;21.80;99.90;;;;;;4215303;28;20412;-86
2023/06/19 06:12:24;;;;;;;12.10;4.32;;;21.80;99.90;;;;;;4215595;28;20484;-86
2023/06/19 06:14:26;;;;;;;6.65;3.47;;;21.70;99.90;;;;;;4213918;28;20079;-85
2023/06/19 06:16:27;;;;;;;7.30;4.38;;;21.70;99.90;;;;;;4216220;28;20507;-86
2023/06/19 06:18:27;;;;;;;7.07;4.47;;;21.60;99.90;;;;;;4216232;28;20047;-86
2023/06/19 06:20:28;;;;;;;7.55;4.22;;;21.60;99.90;;;;;;4215412;28;20063;-86
2023/06/19 06:22:29;;;;;;;8.88;5.28;;;21.60;99.90;;;;;;4216352;28;20131;-85
2023/06/19 06:24:30;;;;;;;11.45;5.32;;;21.60;99.90;;;;;;4209045;28;20044;-87
2023/06/19 06:26:31;;;;;;;6.68;4.43;;;21.60;99.90;;;;;;4198592;28;20040;-86
2023/06/19 06:28:31;;;;;;;11.20;4.90;;;21.60;99.90;;;;;;4198421;28;20549;-87
2023/06/19 06:30:32;;;;;;;8.60;5.38;;;21.70;99.90;;;;;;4198227;28;20044;-86
2023/06/19 06:32:34;;;;;;;6.57;4.30;;;21.70;99.90;;;;;;4198152;28;20036;-87
2023/06/19 06:34:35;;;;;;;9.15;5.15;;;21.70;99.90;;;;;;4199339;28;20094;-86
2023/06/19 06:36:35;;;;;;;8.48;4.70;;;21.70;99.90;;;;;;4201741;28;20408;-85
2023/06/19 06:38:36;;;;;;;7.15;5.25;;;21.70;99.90;;;;;;4201484;28;20037;-85
2023/06/19 06:40:37;;;;;;;9.13;5.00;;;21.90;99.90;;;;;;4202159;28;20124;-88
2023/06/19 06:42:39;;;;;;;7.85;4.90;;;21.60;99.90;;;;;;4201976;28;20044;-86
2023/06/19 06:44:39;;;;;;;6.30;4.82;;;21.60;99.90;;;;;;4201993;28;20079;-86
2023/06/19 06:46:40;;;;;;;8.05;4.65;;;21.60;99.90;;;;;;4201464;28;20466;-85
2023/06/19 06:48:41;;;;;;;7.82;4.47;;;21.50;99.90;;;;;;4201618;28;20591;-86
2023/06/19 06:50:43;;;;;;;7.15;4.78;;;21.50;99.90;;;;;;4200885;28;20482;-86
2023/06/19 06:52:45;;;;;;;6.07;4.05;;;21.60;99.90;;;;;;4200365;28;20396;-86
2023/06/19 06:54:45;;;;;;;6.78;4.57;;;21.50;99.90;;;;;;4201097;28;20048;-86
2023/06/19 06:56:47;;;;;;;6.65;4.40;;;21.60;99.90;;;;;;4199918;28;20516;-86
2023/06/19 06:58:48;;;;;;;5.30;3.78;;;21.50;99.90;;;;;;4200686;28;20044;-86
2023/06/19 07:00:50;;;;;;;9.20;3.88;;;21.50;99.90;;;;;;4199684;28;20032;-86
2023/06/19 07:02:52;;;;;;;6.47;3.88;;;21.50;99.90;;;;;;4201059;28;20056;-85
2023/06/19 07:04:55;;;;;;;9.25;4.10;;;21.50;99.90;;;;;;4201834;28;20052;-87
2023/06/19 07:06:56;;;;;;;7.28;3.88;;;21.50;99.90;;;;;;4201589;28;20048;-86
2023/06/19 07:08:57;;;;;;;6.07;3.45;;;21.50;99.90;;;;;;4202286;28;20041;-85
2023/06/19 07:10:57;;;;;;;10.05;4.30;;;21.40;99.90;;;;;;4201326;28;20090;-85
2023/06/19 07:12:59;;;;;;;6.60;4.50;;;21.50;99.90;;;;;;4201889;28;20040;-87
2023/06/19 07:15:00;;;;;;;8.32;3.80;;;21.50;99.90;;;;;;4201328;28;20535;-88
2023/06/19 07:17:01;;;;;;;7.82;4.72;;;21.50;99.90;;;;;;4201705;28;20041;-87
2023/06/19 07:19:02;;;;;;;10.68;6.35;;;21.40;99.90;;;;;;4201725;28;20562;-87
2023/06/19 07:21:06;;;;;;;8.60;5.15;;;21.40;99.90;;;;;;4201439;28;20040;-89
2023/06/19 07:23:07;;;;;;;8.40;5.07;;;21.30;99.90;;;;;;4215616;28;20063;-90
2023/06/19 07:25:11;;;;;;;7.97;5.10;;;21.20;99.90;;;;;;4222417;28;20044;-89
2023/06/19 07:27:18;;;;;;;10.20;6.15;;;21.20;99.90;;;;;;4220563;28;20036;-91
2023/06/19 07:29:19;;;;;;;11.90;5.63;;;21.10;99.90;;;;;;4217688;28;20070;-90
2023/06/19 07:31:24;;;;;;;10.23;5.97;;;21.00;99.90;;;;;;4218522;28;20040;-91
2023/06/19 07:33:26;;;;;;;9.15;5.97;;;20.90;99.90;;;;;;4218701;28;20051;-90
2023/06/19 07:35:26;;;;;;;9.70;6.32;;;20.90;99.90;;;;;;4216164;28;20499;-90
2023/06/19 07:37:27;;;;;;;12.88;6.97;;;20.80;99.90;;;;;;4211577;28;20044;-90
2023/06/19 07:39:28;;;;;;;11.40;6.55;;;20.70;99.90;;;;;;4218975;28;20468;-89
2023/06/19 07:41:29;;;;;;;12.88;7.03;;;20.60;99.90;;;;;;4220952;28;20079;-90
2023/06/19 07:43:36;;;;;;;15.25;9.18;;;20.60;99.90;;;;;;4218813;28;20044;-90
2023/06/19 07:45:40;;;;;;;14.57;8.88;;;20.50;99.90;;;;;;4220083;28;20040;-89
2023/06/19 07:47:42;;;;;;;18.77;8.85;;;20.40;99.90;;;;;;4219314;28;20047;-89
2023/06/19 07:49:42;;;;;;;15.65;9.18;;;20.40;99.90;;;;;;4219722;28;20044;-89
2023/06/19 07:51:45;;;;;;;16.58;9.15;;;20.40;99.90;;;;;;4220613;28;20518;-87
2023/06/19 07:53:47;;;;;;;18.15;8.80;;;20.40;99.90;;;;;;4224146;28;20044;-88
2023/06/19 07:55:50;;;;;;;16.67;9.30;;;20.40;99.90;;;;;;4222558;28;20040;-87
2023/06/19 07:57:52;;;;;;;17.40;10.00;;;20.40;99.90;;;;;;4220519;28;20053;-87
2023/06/19 07:59:54;;;;;;;13.05;8.73;;;20.40;99.90;;;;;;4204726;28;20051;-87
2023/06/19 08:01:55;;;;;;;15.70;9.05;;;20.40;99.90;;;;;;4222182;28;20132;-87
2023/06/19 08:03:57;;;;;;;18.45;9.48;;;20.40;99.90;;;;;;4218659;28;20040;-86
2023/06/19 08:05:59;;;;;;;19.55;10.85;;;20.40;99.90;;;;;;4195203;28;20060;-86
2023/06/19 08:08:00;;;;;;;15.25;8.48;;;20.50;99.90;;;;;;4223540;28;20055;-87
2023/06/19 08:10:03;;;;;;;18.58;10.05;;;20.50;99.90;;;;;;4205212;28;20052;-87
2023/06/19 08:12:06;;;;;;;14.98;9.07;;;20.50;99.90;;;;;;4223240;28;20071;-88
2023/06/19 08:14:08;;;;;;;15.15;9.15;;;20.50;99.90;;;;;;4201584;28;20106;-89
2023/06/19 08:16:10;;;;;;;17.30;8.65;;;20.60;99.90;;;;;;4220334;28;20066;-88
2023/06/19 08:18:11;;;;;;;15.07;8.35;;;20.70;99.90;;;;;;4217305;28;20057;-88
2023/06/19 08:20:12;;;;;;;13.90;7.95;;;20.70;99.90;;;;;;4221352;28;20040;-86
2023/06/19 08:22:13;;;;;;;14.23;7.78;;;20.70;99.90;;;;;;4219225;28;20797;-90
2023/06/19 08:24:15;;;;;;;15.55;7.55;;;20.70;99.90;;;;;;4223411;28;20190;-90
2023/06/19 08:26:17;;;;;;;13.35;7.47;;;20.70;99.90;;;;;;4203955;28;20070;-89
2023/06/19 08:28:19;;;;;;;12.80;6.60;;;20.80;99.90;;;;;;4219212;28;20020;-87
2023/06/19 08:30:21;;;;;;;13.65;6.32;;;20.70;99.90;;;;;;4221635;28;20062;-89
2023/06/19 08:32:24;;;;;;;11.68;6.28;;;20.70;99.90;;;;;;4221337;28;20519;-89
2023/06/19 08:34:28;;;;;;;10.98;5.88;;;20.70;99.90;;;;;;4221382;28;20036;-89
2023/06/19 08:36:31;;;;;;;8.68;5.20;;;20.70;99.90;;;;;;4220484;28;20044;-89
2023/06/19 08:38:32;;;;;;;11.27;5.63;;;20.70;99.90;;;;;;4220921;28;20052;-88
2023/06/19 08:40:33;;;;;;;9.10;5.35;;;20.80;99.90;;;;;;4221338;28;20036;-88
2023/06/19 08:42:35;;;;;;;8.38;5.18;;;20.90;99.90;;;;;;4220385;28;20055;-89
2023/06/19 08:44:36;;;;;;;7.07;4.50;;;21.00;99.90;;;;;;4220066;28;20024;-89
2023/06/19 08:46:38;;;;;;;8.18;5.13;;;21.10;99.90;;;;;;4207320;28;20056;-90
2023/06/19 08:48:39;;;;;;;9.43;4.85;;;21.40;99.90;;;;;;4202785;28;20060;-89
2023/06/19 08:50:42;;;;;;;8.75;5.50;;;21.20;99.90;;;;;;4206605;28;20044;-89
2023/06/19 08:52:43;;;;;;;11.23;5.05;;;21.20;99.90;;;;;;4207599;28;20048;-90
2023/06/19 08:54:45;;;;;;;8.77;4.35;;;21.40;99.90;;;;;;4205148;28;20049;-90
2023/06/19 08:56:47;;;;;;;10.30;4.60;;;21.30;99.90;;;;;;4203615;28;20040;-90
2023/06/19 08:58:48;;;;;;;6.80;4.05;;;19.50;99.90;;;;;;4185711;28;20029;-89
2023/06/19 09:00:49;;;;;;;11.63;4.90;;;21.20;99.90;;;;;;4185273;28;20119;-89
2023/06/19 09:02:52;;;;;;;9.50;4.35;;;20.60;99.90;;;;;;4207659;28;20044;-89
2023/06/19 09:04:54;;;;;;;5.65;3.30;;;21.30;99.90;;;;;;4184316;28;20049;-89
2023/06/19 09:07:02;;;;;;;6.63;3.72;;;21.20;99.90;;;;;;4197798;28;20127;-89
2023/06/19 09:09:06;;;;;;;7.72;3.20;;;21.10;99.90;;;;;;4218829;28;20574;-89
2023/06/19 09:11:07;;;;;;;6.28;3.40;;;21.00;99.90;;;;;;4220256;28;20551;-89
2023/06/19 09:13:10;;;;;;;5.30;3.65;;;21.00;99.90;;;;;;4221971;28;20043;-88
2023/06/19 09:15:15;;;;;;;10.90;3.53;;;21.00;99.90;;;;;;4219486;28;20390;-88
2023/06/19 09:17:26;;;;;;;8.32;3.70;;;21.00;99.90;;;;;;4220115;28;20055;-88
2023/06/19 09:19:27;;;;;;;7.32;3.80;;;21.00;99.90;;;;;;4219676;28;20099;-88
2023/06/19 09:21:28;;;;;;;7.80;3.75;;;21.40;99.90;;;;;;4216143;28;20165;-89
2023/06/19 09:23:29;;;;;;;6.65;3.30;;;21.20;99.90;;;;;;4210324;28;20056;-89
2023/06/19 09:25:30;;;;;;;9.68;3.15;;;22.80;99.90;;;;;;4194557;28;20049;-86
2023/06/19 09:27:33;;;;;;;6.45;2.92;;;21.60;99.90;;;;;;4211487;28;20036;-87
2023/06/19 09:29:40;;;;;;;4.18;3.10;;;21.70;99.90;;;;;;4213698;28;20090;-87
2023/06/19 09:31:42;;;;;;;6.63;2.70;;;21.90;99.90;;;;;;4195853;28;20040;-87
2023/06/19 09:33:43;;;;;;;5.07;3.38;;;21.90;99.90;;;;;;4215061;28;20085;-88
2023/06/19 09:35:44;;;;;;;6.85;3.30;;;22.00;99.90;;;;;;4200450;28;20433;-87
2023/06/19 09:37:46;;;;;;;4.68;3.15;;;22.30;99.90;;;;;;4212935;28;20054;-87
2023/06/19 09:39:53;;;;;;;7.30;3.95;;;22.00;99.90;;;;;;4200354;28;20075;-87
2023/06/19 09:41:58;;;;;;;6.90;3.92;;;22.10;99.90;;;;;;4216010;28;20427;-89
2023/06/19 09:44:02;;;;;;;5.75;3.45;;;21.90;99.90;;;;;;4201174;28;20040;-87
2023/06/19 09:46:04;;;;;;;6.88;3.60;;;22.00;99.90;;;;;;4215809;28;20051;-87
2023/06/19 09:48:10;;;;;;;5.72;3.33;;;21.80;99.90;;;;;;4217059;28;20480;-86
2023/06/19 09:50:15;;;;;;;7.50;3.80;;;21.70;99.90;;;;;;4215825;28;20538;-89
2023/06/19 09:52:22;;;;;;;7.20;3.45;;;22.10;99.90;;;;;;4215463;28;20117;-88
2023/06/19 09:54:25;;;;;;;6.57;3.75;;;21.50;99.90;;;;;;4217676;28;20087;-87
2023/06/19 09:56:28;;;;;;;5.85;3.58;;;21.50;99.90;;;;;;4199419;28;20096;-88
2023/06/19 09:58:30;;;;;;;6.45;3.63;;;21.40;99.90;;;;;;4216001;28;20119;-88
2023/06/19 10:00:34;;;;;;;8.55;3.28;;;21.40;99.90;;;;;;4216527;28;20035;-88
2023/06/19 10:02:38;;;;;;;7.22;3.80;;;21.30;99.90;;;;;;4215780;28;20042;-88
2023/06/19 10:04:46;;;;;;;5.00;3.40;;;21.40;99.90;;;;;;4216486;28;20044;-88
2023/06/19 10:06:49;;;;;;;6.63;3.90;;;21.50;99.90;;;;;;4197239;28;20041;-88
2023/06/19 10:08:51;;;;;;;13.95;4.55;;;21.40;99.90;;;;;;4217233;28;20051;-86
2023/06/19 10:10:55;;;;;;;7.18;4.47;;;21.70;99.90;;;;;;4214546;28;20408;-88
2023/06/19 10:13:12;;;;;;;7.45;4.57;;;21.90;99.90;;;;;;4214876;28;20036;-89
2023/06/19 10:15:24;;;;;;;9.75;4.90;;;21.50;99.90;;;;;;4215396;28;20051;-87
2023/06/19 10:17:30;;;;;;;8.15;4.38;;;21.40;99.90;;;;;;4214099;28;20035;-87
2023/06/19 10:19:34;;;;;;;9.45;4.65;;;21.50;99.90;;;;;;4196573;28;20048;-88
2023/06/19 10:21:45;;;;;;;11.20;4.65;;;21.30;99.90;;;;;;4216595;28;20040;-88
2023/06/19 10:23:57;;;;;;;9.38;4.85;;;21.30;99.90;;;;;;4161802;28;1111452;-90
2023/06/19 10:26:00;;;;;;;8.52;5.18;;;21.20;99.90;;;;;;4197418;28;20600;-88
2023/06/19 10:28:01;;;;;;;9.40;5.15;;;21.10;99.90;;;;;;4218523;28;20036;-89
2023/06/19 10:30:04;;;;;;;7.68;4.68;;;21.00;99.90;;;;;;4215862;28;20044;-90
2023/06/19 10:32:05;;;;;;;8.40;4.65;;;21.00;99.90;;;;;;4215842;28;20389;-89
2023/06/19 10:34:05;;;;;;;10.63;5.32;;;21.00;99.90;;;;;;4215378;28;20083;-89